Time;durP1;ratioP1;P1;durP2;ratioP2;P2;SDS_P1;SDS_P2;PMS_P1;PMS_P2;Temp;Humidity;BMP_temperature;BMP_pressure;BME280_temperature;BME280_humidity;BME280_pressure;Samples;Min_cycle;Max_cycle;Signal;HPM_P1;HPM_P2
2021/11/30 00:04:30;;;;;;;0.60;0.60;;;;;;;1.67;95.52;98662.38;4991895;28;20116;-75
2021/11/30 00:06:57;;;;;;;0.80;0.80;;;;;;;1.56;95.42;98663.94;4991942;28;20054;-74
2021/11/30 00:11:59;;;;;;;2.35;2.25;;;;;;;1.58;97.31;98667.34;4992182;28;20411;-74
2021/11/30 00:14:24;;;;;;;0.85;0.85;;;;;;;1.64;96.76;98671.69;4992065;28;20026;-75
2021/11/30 00:16:50;;;;;;;1.30;1.30;;;;;;;1.67;96.47;98674.31;4993617;28;20424;-74
2021/11/30 00:19:15;;;;;;;1.45;1.35;;;;;;;1.67;96.60;98670.03;4995409;28;20022;-74
2021/11/30 00:21:40;;;;;;;0.85;0.80;;;;;;;1.50;96.84;98674.03;4995731;28;20026;-74
2021/11/30 00:24:06;;;;;;;1.00;0.98;;;;;;;1.66;98.32;98660.69;4995653;28;20038;-74
2021/11/30 00:26:32;;;;;;;0.85;0.85;;;;;;;1.73;98.32;98676.94;4995497;28;20372;-74
2021/11/30 00:28:57;;;;;;;1.00;1.00;;;;;;;1.72;97.64;98676.09;4994370;28;20022;-73
2021/11/30 00:31:22;;;;;;;0.60;0.60;;;;;;;1.88;98.87;98673.75;4995261;28;20041;-74
2021/11/30 00:33:47;;;;;;;1.73;1.63;;;;;;;1.65;97.73;98671.72;4995473;28;20077;-74
2021/11/30 00:36:13;;;;;;;1.02;1.02;;;;;;;1.67;98.18;98682.81;4995284;28;20022;-74
2021/11/30 00:38:38;;;;;;;0.93;0.85;;;;;;;1.76;97.54;98682.97;4994480;28;20479;-74
2021/11/30 00:41:03;;;;;;;1.63;1.52;;;;;;;1.84;96.41;98684.75;4994893;28;20015;-74
2021/11/30 00:43:33;;;;;;;1.65;1.55;;;;;;;1.82;96.32;98681.34;4995338;28;20157;-74
2021/11/30 00:46:09;;;;;;;1.10;1.10;;;;;;;1.80;97.44;98679.63;4995488;28;20104;-74
2021/11/30 00:48:34;;;;;;;0.80;0.80;;;;;;;1.74;96.32;98684.66;4994459;28;20049;-74
2021/11/30 00:51:09;;;;;;;0.73;0.73;;;;;;;1.72;96.50;98690.56;4994697;28;20022;-74
2021/11/30 00:53:34;;;;;;;1.02;1.02;;;;;;;1.72;96.65;98681.19;4994865;28;20034;-74
2021/11/30 00:56:00;;;;;;;0.60;0.60;;;;;;;1.68;96.83;98689.63;4994911;28;20026;-74
2021/11/30 00:58:25;;;;;;;0.85;0.85;;;;;;;1.69;96.97;98686.28;4995180;28;20054;-75
2021/11/30 05:15:51;;;;;;;0.70;0.70;;;;;;;1.46;83.38;98683.34;5708538;23;20064;-69
2021/11/30 05:18:16;;;;;;;0.80;0.80;;;;;;;1.51;82.86;98681.72;4899022;29;20044;-69
2021/11/30 05:20:44;;;;;;;0.80;0.80;;;;;;;1.45;82.64;98684.19;4898849;29;20029;-69
2021/11/30 05:23:13;;;;;;;0.95;0.95;;;;;;;1.46;82.24;98677.38;4898845;29;20484;-69
2021/11/30 05:25:40;;;;;;;0.88;0.88;;;;;;;1.51;82.31;98670.66;4898815;29;20028;-69
2021/11/30 05:28:06;;;;;;;0.60;0.60;;;;;;;1.49;82.31;98668.06;4898701;29;20442;-69
2021/11/30 05:30:38;;;;;;;0.68;0.68;;;;;;;1.52;82.59;98673.22;4976684;23;20035;-75
2021/11/30 05:33:06;;;;;;;0.80;0.80;;;;;;;1.50;82.52;98679.16;4936516;29;20055;-75
2021/11/30 05:35:31;;;;;;;0.55;0.55;;;;;;;1.51;81.88;98655.34;4936509;29;20544;-75
2021/11/30 05:37:57;;;;;;;0.80;0.80;;;;;;;1.47;81.86;98674.00;4936472;29;20035;-75
2021/11/30 05:40:22;;;;;;;0.60;0.60;;;;;;;1.42;82.72;98680.72;4924321;29;20107;-75
2021/11/30 05:42:47;;;;;;;3.13;1.80;;;;;;;1.48;82.77;98670.59;4870902;29;20047;-74
2021/11/30 05:45:13;;;;;;;1.08;1.08;;;;;;;1.41;84.16;98679.00;4936392;29;20114;-75
2021/11/30 05:47:38;;;;;;;0.70;0.70;;;;;;;1.42;83.14;98676.47;4936296;29;20130;-75
2021/11/30 05:50:04;;;;;;;6.32;1.05;;;;;;;1.36;82.68;98670.41;4936110;29;20553;-76
2021/11/30 05:52:29;;;;;;;0.90;0.90;;;;;;;1.37;83.31;98672.13;4936199;29;20090;-75
2021/11/30 05:54:54;;;;;;;1.00;1.00;;;;;;;1.38;82.51;98668.72;4936197;29;20540;-74
2021/11/30 05:57:22;;;;;;;0.60;0.60;;;;;;;1.40;82.63;98669.59;4936045;29;20421;-74
2021/11/30 05:59:48;;;;;;;0.65;0.65;;;;;;;1.36;82.58;98665.31;4935641;29;20550;-74
2021/11/30 06:02:13;;;;;;;3.33;2.25;;;;;;;1.31;83.03;98651.59;4936084;29;20107;-74
2021/11/30 06:04:39;;;;;;;2.50;0.80;;;;;;;1.31;83.26;98657.56;4936046;29;20028;-74
2021/11/30 06:07:05;;;;;;;0.95;0.95;;;;;;;1.29;83.84;98665.16;4935951;29;20028;-74
2021/11/30 06:09:33;;;;;;;0.85;0.85;;;;;;;1.28;84.06;98658.34;4935600;29;20032;-74
2021/11/30 06:11:58;;;;;;;1.20;1.20;;;;;;;1.26;83.51;98657.50;4935822;29;20110;-74
2021/11/30 06:14:23;;;;;;;1.10;1.10;;;;;;;1.24;84.93;98648.94;4934894;29;20111;-74
2021/11/30 06:16:49;;;;;;;9.65;0.95;;;;;;;1.27;84.58;98650.69;4935799;29;20028;-74
2021/11/30 06:19:15;;;;;;;0.70;0.70;;;;;;;1.24;83.90;98650.63;4935454;29;20670;-74
2021/11/30 06:21:40;;;;;;;0.73;0.73;;;;;;;1.20;84.23;98654.81;4935767;29;20409;-74
2021/11/30 06:24:06;;;;;;;0.73;0.73;;;;;;;1.24;83.86;98641.28;4935596;29;20020;-74
2021/11/30 06:26:31;;;;;;;0.85;0.85;;;;;;;1.20;83.40;98647.16;4935536;29;20036;-74
2021/11/30 06:28:56;;;;;;;0.70;0.70;;;;;;;1.21;85.01;98650.56;4935398;29;20028;-74
2021/11/30 06:31:22;;;;;;;0.90;0.90;;;;;;;1.11;84.36;98644.44;4935214;29;20028;-74
2021/11/30 06:33:47;;;;;;;0.70;0.70;;;;;;;1.07;85.71;98642.69;4935354;29;20036;-74
2021/11/30 06:36:13;;;;;;;0.98;0.98;;;;;;;0.95;87.56;98642.47;4935517;29;20027;-74
2021/11/30 06:38:38;;;;;;;0.90;0.90;;;;;;;0.89;88.93;98637.25;4935405;29;20031;-74
2021/11/30 06:41:03;;;;;;;0.63;0.63;;;;;;;0.74;90.06;98648.03;4935052;29;20381;-74
2021/11/30 06:43:29;;;;;;;0.95;0.95;;;;;;;0.77;90.51;98633.66;4935298;29;20525;-74
2021/11/30 06:45:54;;;;;;;0.90;0.90;;;;;;;0.74;91.15;98631.06;4934021;29;20491;-74
2021/11/30 06:48:20;;;;;;;0.90;0.90;;;;;;;0.65;91.02;98637.66;4935291;29;20039;-74
2021/11/30 06:50:46;;;;;;;0.70;0.70;;;;;;;0.63;92.00;98630.00;4935031;29;20112;-74
2021/11/30 06:53:12;;;;;;;0.70;0.70;;;;;;;0.67;92.02;98634.31;4935129;29;20031;-74
2021/11/30 06:55:37;;;;;;;0.70;0.70;;;;;;;0.67;91.28;98636.84;4935002;29;20035;-74
2021/11/30 06:58:03;;;;;;;0.80;0.77;;;;;;;0.64;92.00;98631.72;4935034;29;20035;-74
2021/11/30 07:00:28;;;;;;;1.02;1.02;;;;;;;0.58;92.11;98626.50;4934545;29;20496;-74
2021/11/30 07:02:55;;;;;;;1.50;0.88;;;;;;;0.64;92.25;98621.50;4935101;29;20433;-74
2021/11/30 07:05:25;;;;;;;0.70;0.70;;;;;;;0.53;92.13;98633.19;4934951;29;20030;-74
2021/11/30 07:15:42;;;;;;;1.23;1.23;;;;;;;0.68;91.87;98618.19;4934802;29;20126;-74
2021/11/30 07:18:08;;;;;;;1.52;1.52;;;;;;;0.67;92.26;98611.34;4934918;29;20087;-74
2021/11/30 07:20:33;;;;;;;0.70;0.70;;;;;;;0.68;91.99;98608.00;4934542;29;20031;-74
2021/11/30 07:22:58;;;;;;;0.77;0.77;;;;;;;0.74;90.95;98608.09;4934728;29;20035;-74
2021/11/30 07:25:25;;;;;;;0.70;0.70;;;;;;;0.80;92.13;98596.28;4934722;29;20078;-74
2021/11/30 07:27:52;;;;;;;0.85;0.85;;;;;;;0.87;90.01;98598.09;4934828;29;20031;-74
2021/11/30 07:30:18;;;;;;;0.90;0.90;;;;;;;0.90;90.55;98590.50;4934302;29;20035;-74
2021/11/30 07:32:43;;;;;;;0.80;0.80;;;;;;;0.85;89.61;98584.47;4934637;29;20071;-74
2021/11/30 07:35:08;;;;;;;1.00;1.00;;;;;;;0.84;89.47;98586.19;4934679;29;20028;-75
2021/11/30 07:37:34;;;;;;;1.20;1.10;;;;;;;0.95;89.79;98591.44;4934544;29;20028;-74
2021/11/30 07:39:59;;;;;;;0.70;0.70;;;;;;;0.98;89.82;98571.97;4934649;29;20477;-74
2021/11/30 07:42:26;;;;;;;0.60;0.60;;;;;;;0.97;89.95;98584.69;4934650;29;20643;-75
2021/11/30 07:44:51;;;;;;;0.60;0.60;;;;;;;1.05;89.83;98578.00;4934727;29;20020;-75
2021/11/30 07:47:17;;;;;;;0.70;0.70;;;;;;;1.03;88.81;98556.75;4934530;29;20492;-74
2021/11/30 07:49:42;;;;;;;0.60;0.60;;;;;;;0.99;88.27;98558.38;4934359;29;20392;-74
2021/11/30 07:52:08;;;;;;;0.60;0.60;;;;;;;1.00;87.01;98560.09;4934471;29;20035;-74
2021/11/30 07:54:33;;;;;;;0.65;0.65;;;;;;;1.10;88.44;98555.97;4934767;29;20027;-74
2021/11/30 07:56:59;;;;;;;0.80;0.80;;;;;;;1.07;87.66;98555.97;4934522;29;20036;-74
2021/11/30 07:59:24;;;;;;;0.80;0.80;;;;;;;1.10;87.94;98561.09;4934060;29;20392;-74
2021/11/30 08:01:49;;;;;;;0.50;0.50;;;;;;;1.12;88.84;98545.84;4934393;29;20469;-74
2021/11/30 08:04:15;;;;;;;0.63;0.63;;;;;;;1.13;87.64;98545.84;4934415;29;20020;-74
2021/11/30 08:06:40;;;;;;;4.03;0.93;;;;;;;1.12;87.99;98554.34;4934347;29;20027;-74
2021/11/30 08:09:07;;;;;;;0.82;0.82;;;;;;;1.20;86.89;98562.94;4934170;29;20063;-74
2021/11/30 08:11:33;;;;;;;0.60;0.60;;;;;;;1.22;87.31;98558.75;4934363;29;20027;-74
2021/11/30 08:13:58;;;;;;;1.20;1.20;;;;;;;1.21;86.41;98561.25;4934280;29;20042;-74
2021/11/30 08:16:23;;;;;;;0.90;0.90;;;;;;;1.27;87.00;98554.56;4934381;29;20028;-74
2021/11/30 08:18:49;;;;;;;0.60;0.60;;;;;;;1.22;87.47;98561.31;4934246;29;20103;-74
2021/11/30 08:21:14;;;;;;;0.60;0.60;;;;;;;1.28;88.04;98556.28;4934089;29;20096;-74
2021/11/30 08:23:39;;;;;;;0.60;0.60;;;;;;;1.27;87.65;98539.25;4934235;29;20035;-74
2021/11/30 08:26:04;;;;;;;0.60;0.60;;;;;;;1.20;87.65;98552.75;4934247;29;20028;-73
2021/11/30 08:28:30;;;;;;;0.93;0.93;;;;;;;1.19;88.03;98545.06;4934282;29;20110;-73
2021/11/30 08:30:56;;;;;;;0.63;0.63;;;;;;;1.10;88.82;98535.56;4933829;29;20031;-74
2021/11/30 08:33:22;;;;;;;1.40;1.30;;;;;;;1.08;88.35;98528.75;4934200;29;20400;-74
2021/11/30 08:35:47;;;;;;;0.60;0.60;;;;;;;1.09;87.64;98528.75;4933968;29;20024;-74
2021/11/30 08:38:13;;;;;;;0.82;0.82;;;;;;;1.09;86.98;98523.66;4936150;29;20031;-73
2021/11/30 08:40:39;;;;;;;0.52;0.52;;;;;;;1.13;88.91;98522.88;4937372;29;20030;-74
2021/11/30 08:43:04;;;;;;;1.00;1.00;;;;;;;1.14;88.55;98506.72;4937500;29;20027;-74
2021/11/30 08:45:30;;;;;;;0.60;0.60;;;;;;;1.17;88.22;98517.00;4937345;29;20032;-73
2021/11/30 08:47:55;;;;;;;0.60;0.60;;;;;;;1.16;87.87;98510.19;4937358;29;20028;-74
2021/11/30 08:50:21;;;;;;;0.70;0.70;;;;;;;1.16;87.63;98519.50;4936980;29;20492;-74
2021/11/30 08:52:47;;;;;;;0.95;0.95;;;;;;;1.13;87.83;98507.56;4937300;29;20067;-74
2021/11/30 08:55:14;;;;;;;1.23;1.13;;;;;;;1.13;88.28;98507.56;4937264;29;20390;-74
2021/11/30 08:57:40;;;;;;;0.93;0.93;;;;;;;1.05;90.13;98505.72;4937299;29;20031;-74
2021/11/30 09:00:09;;;;;;;0.60;0.60;;;;;;;1.09;90.54;98503.25;4936872;29;20162;-74
2021/11/30 09:02:35;;;;;;;0.50;0.50;;;;;;;1.11;90.89;98491.38;4929842;29;20049;-74
2021/11/30 09:05:04;;;;;;;0.60;0.60;;;;;;;1.03;89.79;98498.06;4936882;29;20030;-74
2021/11/30 09:07:29;;;;;;;1.00;1.00;;;;;;;0.98;90.69;98489.50;4937029;29;20111;-74
2021/11/30 09:09:54;;;;;;;0.70;0.70;;;;;;;0.96;91.42;98498.78;4936797;29;20060;-74
2021/11/30 09:12:20;;;;;;;1.13;1.10;;;;;;;1.00;90.97;98487.81;4936959;29;20024;-74
2021/11/30 09:14:46;;;;;;;0.63;0.63;;;;;;;1.11;92.09;98491.38;4936975;29;20433;-74
2021/11/30 09:17:12;;;;;;;1.83;1.02;;;;;;;1.06;91.63;98487.88;4936905;29;20054;-74
2021/11/30 09:19:38;;;;;;;0.60;0.60;;;;;;;1.07;92.05;98499.84;4936546;29;20031;-74
2021/11/30 09:22:04;;;;;;;1.73;1.63;;;;;;;1.10;92.31;98504.97;4936809;29;20471;-74
2021/11/30 09:24:30;;;;;;;1.08;0.90;;;;;;;1.03;91.86;98488.72;4936643;29;20440;-74
2021/11/30 09:26:55;;;;;;;0.60;0.60;;;;;;;1.00;92.59;98509.06;4936742;29;20024;-73
2021/11/30 09:29:20;;;;;;;0.60;0.60;;;;;;;0.96;92.75;98493.69;4936221;29;20042;-74
2021/11/30 09:31:46;;;;;;;1.00;1.00;;;;;;;0.99;92.72;98498.84;4936435;29;20066;-74
2021/11/30 09:34:11;;;;;;;0.60;0.60;;;;;;;1.07;93.32;98514.28;4936465;29;20063;-74
2021/11/30 09:36:37;;;;;;;0.50;0.50;;;;;;;0.87;93.14;98502.09;4936505;29;20389;-74
2021/11/30 09:39:06;;;;;;;0.70;0.70;;;;;;;0.76;94.67;98486.59;4936372;29;20028;-73
2021/11/30 09:41:31;;;;;;;0.60;0.60;;;;;;;0.81;94.64;98490.91;4936406;29;20106;-74
2021/11/30 09:43:57;;;;;;;0.60;0.60;;;;;;;0.76;95.12;98484.03;4936491;29;20466;-74
2021/11/30 09:46:23;;;;;;;0.60;0.60;;;;;;;0.73;95.76;98478.91;4936328;29;20556;-74
2021/11/30 09:48:49;;;;;;;0.70;0.70;;;;;;;0.76;95.50;98484.03;4936066;29;20033;-74
2021/11/30 09:51:14;;;;;;;0.82;0.82;;;;;;;0.70;96.38;98488.19;4936023;29;20399;-74
2021/11/30 09:53:40;;;;;;;0.90;0.90;;;;;;;0.66;96.74;98478.78;4935871;29;20031;-74
2021/11/30 09:56:05;;;;;;;0.90;0.90;;;;;;;0.68;96.93;98475.44;4936194;29;20028;-74
2021/11/30 09:58:31;;;;;;;0.85;0.85;;;;;;;0.71;97.06;98470.34;4935998;29;20031;-74
2021/11/30 10:00:59;;;;;;;0.70;0.70;;;;;;;0.70;96.44;98462.69;4935599;29;20024;-74
2021/11/30 10:03:25;;;;;;;0.60;0.60;;;;;;;0.82;96.04;98454.38;4935824;29;20035;-74
2021/11/30 10:05:52;;;;;;;0.60;0.60;;;;;;;0.79;96.37;98456.88;4935943;29;20034;-74
2021/11/30 10:08:34;;;;;;;0.60;0.60;;;;;;;0.94;96.67;98459.66;4935921;29;20055;-74
2021/11/30 10:11:01;;;;;;;8.75;1.55;;;;;;;0.92;96.40;98453.66;4935549;29;20493;-74
2021/11/30 10:13:27;;;;;;;0.80;0.80;;;;;;;0.93;96.56;98461.38;4935701;29;20031;-74
2021/11/30 10:16:12;;;;;;;0.50;0.50;;;;;;;1.02;96.62;98450.44;4935644;29;20038;-74
2021/11/30 10:18:39;;;;;;;0.60;0.60;;;;;;;0.96;96.87;98446.09;4935632;29;20027;-74
2021/11/30 10:21:08;;;;;;;0.63;0.63;;;;;;;0.93;97.51;98446.06;4935471;29;20027;-74
2021/11/30 10:23:53;;;;;;;1.40;1.33;;;;;;;0.86;97.79;98443.38;4935442;29;20114;-74
2021/11/30 10:26:24;;;;;;;1.05;1.05;;;;;;;0.84;98.23;98435.72;4935559;29;20135;-74
2021/11/30 10:28:59;;;;;;;0.70;0.70;;;;;;;0.68;98.78;98429.53;4935538;29;20120;-73
2021/11/30 10:31:31;;;;;;;0.60;0.60;;;;;;;0.68;99.51;98428.69;4935448;29;20023;-74
2021/11/30 10:33:56;;;;;;;0.70;0.70;;;;;;;0.72;100.00;98430.41;4935356;29;20028;-73
2021/11/30 10:36:22;;;;;;;0.70;0.70;;;;;;;0.55;99.89;98435.25;4935416;29;20035;-74
2021/11/30 10:38:48;;;;;;;0.75;0.75;;;;;;;0.67;100.00;98427.78;4935381;29;20485;-74
2021/11/30 10:41:22;;;;;;;2.45;2.25;;;;;;;0.69;100.00;98415.94;4935424;29;20027;-73
2021/11/30 10:43:56;;;;;;;0.60;0.60;;;;;;;0.61;100.00;98412.41;4935349;29;20473;-74
2021/11/30 10:46:24;;;;;;;0.52;0.52;;;;;;;0.59;100.00;98414.09;4935247;29;20034;-73
2021/11/30 10:48:49;;;;;;;0.80;0.80;;;;;;;0.67;100.00;98409.94;4935176;29;20116;-73
2021/11/30 10:51:15;;;;;;;0.60;0.60;;;;;;;0.70;100.00;98404.06;4934814;29;20103;-73
2021/11/30 10:53:44;;;;;;;0.80;0.80;;;;;;;0.75;99.96;98404.97;4935043;29;20059;-74
2021/11/30 10:56:10;;;;;;;0.60;0.60;;;;;;;0.79;100.00;98390.59;4935097;29;20063;-74
2021/11/30 10:58:42;;;;;;;0.80;0.80;;;;;;;0.67;100.00;98401.44;4935073;29;20069;-74
2021/11/30 11:01:12;;;;;;;0.60;0.60;;;;;;;0.58;100.00;98389.44;4934182;29;20058;-74
2021/11/30 11:03:37;;;;;;;0.70;0.70;;;;;;;0.67;100.00;98397.22;4934838;29;20019;-74
2021/11/30 11:08:55;;;;;;;0.55;0.55;;;;;;;0.80;100.00;98407.59;4935187;29;20042;-73
2021/11/30 11:11:39;;;;;;;0.80;0.80;;;;;;;0.82;99.74;98405.91;4934954;29;20023;-74
2021/11/30 11:14:15;;;;;;;0.70;0.70;;;;;;;0.74;99.96;98404.13;4934799;29;20020;-74
2021/11/30 11:16:42;;;;;;;0.85;0.85;;;;;;;0.54;100.00;98400.44;4934782;29;20106;-74
2021/11/30 11:19:08;;;;;;;0.93;0.93;;;;;;;0.63;100.00;98400.56;4934747;29;20107;-74
2021/11/30 11:21:36;;;;;;;1.98;1.15;;;;;;;0.63;100.00;98390.38;4934672;29;20040;-74
2021/11/30 11:24:16;;;;;;;0.82;0.82;;;;;;;0.57;100.00;98385.16;4934778;29;20020;-74
2021/11/30 11:26:45;;;;;;;0.95;0.95;;;;;;;0.63;100.00;98390.38;4934620;29;20039;-74
2021/11/30 11:29:17;;;;;;;1.98;1.27;;;;;;;0.66;100.00;98380.19;4934483;29;20035;-74
2021/11/30 11:32:00;;;;;;;0.80;0.80;;;;;;;0.56;100.00;98380.91;4948232;23;20036;-70
2021/11/30 11:34:29;;;;;;;0.70;0.70;;;;;;;0.57;100.00;98377.50;4934597;29;20032;-70
2021/11/30 11:36:56;;;;;;;0.70;0.70;;;;;;;0.59;100.00;98368.22;4934136;29;20090;-70
2021/11/30 11:39:23;;;;;;;0.50;0.50;;;;;;;0.61;100.00;98371.63;4934451;29;20032;-70
2021/11/30 11:41:55;;;;;;;0.50;0.50;;;;;;;0.49;100.00;98366.38;4933163;29;20412;-69
2021/11/30 11:44:21;;;;;;;2.28;0.85;;;;;;;0.46;100.00;98371.41;4934533;29;20111;-70
2021/11/30 11:46:48;;;;;;;1.00;1.00;;;;;;;0.55;100.00;98356.25;4934477;29;20103;-69
2021/11/30 11:49:19;;;;;;;1.40;0.80;;;;;;;0.64;100.00;98356.41;4934374;29;20106;-70
2021/11/30 11:51:46;;;;;;;0.82;0.82;;;;;;;0.70;100.00;98355.63;4934288;29;20027;-70
2021/11/30 11:54:29;;;;;;;1.58;1.25;;;;;;;0.54;100.00;98359.66;4934266;29;20416;-70
2021/11/30 11:56:57;;;;;;;0.55;0.55;;;;;;;0.82;100.00;98363.41;4934284;29;20480;-69
2021/11/30 11:59:27;;;;;;;0.60;0.60;;;;;;;0.93;100.00;98368.69;4930975;29;20036;-70
2021/11/30 12:02:11;;;;;;;1.25;1.23;;;;;;;0.77;100.00;98373.59;4926291;29;20026;-70
2021/11/30 12:04:42;;;;;;;1.70;1.60;;;;;;;0.83;100.00;98366.84;4934509;29;20412;-70
2021/11/30 12:07:08;;;;;;;0.82;0.82;;;;;;;0.77;100.00;98368.50;4934424;29;20046;-70
2021/11/30 12:09:35;;;;;;;0.70;0.70;;;;;;;0.94;100.00;98366.16;4934002;29;20035;-68
2021/11/30 12:12:16;;;;;;;1.00;1.00;;;;;;;0.74;100.00;98353.13;4934757;29;20031;-68
2021/11/30 12:14:44;;;;;;;1.20;1.20;;;;;;;0.88;100.00;98355.88;4937792;29;20023;-68
2021/11/30 12:17:16;;;;;;;0.60;0.60;;;;;;;0.89;100.00;98366.94;4937898;29;20035;-68
2021/11/30 12:20:05;;;;;;;1.33;1.27;;;;;;;1.17;100.00;98361.34;4937772;29;20030;-68
2021/11/30 12:22:51;;;;;;;0.82;0.82;;;;;;;1.02;100.00;98358.63;4937935;29;20449;-68
2021/11/30 12:25:20;;;;;;;0.82;0.82;;;;;;;1.13;100.00;98351.94;4937922;29;20035;-68
2021/11/30 12:27:46;;;;;;;1.48;0.90;;;;;;;0.82;100.00;98354.91;4937895;29;20055;-68
2021/11/30 12:30:42;;;;;;;0.63;0.63;;;;;;;1.02;100.00;98349.28;4933171;29;20452;-68
2021/11/30 12:33:34;;;;;;;0.93;0.88;;;;;;;1.15;100.00;98345.16;4934318;29;20565;-68
2021/11/30 12:36:08;;;;;;;0.65;0.65;;;;;;;1.04;100.00;98341.63;4937489;29;20536;-68
2021/11/30 12:38:40;;;;;;;0.60;0.60;;;;;;;1.04;100.00;98341.63;4937727;29;20024;-68
2021/11/30 12:41:30;;;;;;;3.20;1.67;;;;;;;1.19;100.00;98339.25;4937427;29;20070;-67
2021/11/30 12:44:07;;;;;;;0.70;0.70;;;;;;;1.14;100.00;98343.44;4937358;29;20035;-68
2021/11/30 12:46:34;;;;;;;0.60;0.60;;;;;;;1.01;100.00;98336.47;4937536;29;20396;-68
2021/11/30 12:49:03;;;;;;;0.65;0.65;;;;;;;1.02;100.00;98343.31;4937122;29;20023;-68
2021/11/30 12:51:34;;;;;;;0.95;0.95;;;;;;;1.03;100.00;98339.91;4937197;29;20489;-68
2021/11/30 12:54:02;;;;;;;1.33;1.23;;;;;;;1.09;100.00;98329.78;4937229;29;20397;-68
2021/11/30 12:56:48;;;;;;;1.23;1.23;;;;;;;0.90;100.00;98344.00;4937449;29;20072;-68
2021/11/30 12:59:42;;;;;;;0.82;0.82;;;;;;;0.95;100.00;98328.75;4933895;29;20024;-68
2021/11/30 13:02:19;;;;;;;0.60;0.60;;;;;;;1.23;100.00;98333.34;4929137;29;20055;-69
2021/11/30 13:04:46;;;;;;;0.85;0.85;;;;;;;1.32;100.00;98340.28;4936865;29;20520;-69
2021/11/30 13:07:16;;;;;;;0.75;0.75;;;;;;;1.32;100.00;98342.81;4937007;29;20028;-69
2021/11/30 13:09:45;;;;;;;1.10;1.10;;;;;;;1.32;100.00;98342.81;4936676;29;20426;-69
2021/11/30 13:12:14;;;;;;;1.02;1.02;;;;;;;1.24;100.00;98340.16;4936859;29;20027;-69
2021/11/30 13:14:41;;;;;;;;;;;;;;;1.24;100.00;98344.41;4937384;29;20042;-69
2021/11/30 13:17:07;;;;;;;0.70;0.70;;;;;;;1.24;100.00;98346.97;4936712;29;20292;-69
2021/11/30 13:19:35;;;;;;;0.70;0.70;;;;;;;1.28;100.00;98341.91;4901598;28;20039;-69
2021/11/30 13:22:03;;;;;;;0.60;0.60;;;;;;;1.47;100.00;98337.03;4918791;29;20059;-68
2021/11/30 13:24:37;;;;;;;0.70;0.70;;;;;;;1.43;100.00;98346.34;4917425;29;20058;-67
2021/11/30 13:27:21;;;;;;;0.60;0.60;;;;;;;1.59;100.00;98334.59;4917656;29;20031;-68
2021/11/30 13:30:01;;;;;;;0.70;0.70;;;;;;;1.44;100.00;98326.78;4913851;29;20054;-67
2021/11/30 13:32:46;;;;;;;;;;;;;;;1.51;100.00;98328.56;4910048;29;20104;-67
2021/11/30 13:35:22;;;;;;;0.77;0.77;;;;;;;1.39;100.00;98329.28;4917194;29;19915;-67
2021/11/30 13:37:53;;;;;;;0.90;0.90;;;;;;;1.54;100.00;98336.25;4917193;29;20032;-67
2021/11/30 13:40:34;;;;;;;0.60;0.60;;;;;;;1.62;100.00;98324.41;4917386;29;20416;-69
2021/11/30 13:43:01;;;;;;;0.90;0.90;;;;;;;1.62;100.00;98326.97;4917564;29;20028;-69
2021/11/30 13:45:27;;;;;;;0.60;0.60;;;;;;;1.51;100.00;98326.03;4917551;29;20076;-69
2021/11/30 13:47:53;;;;;;;0.70;0.70;;;;;;;1.46;100.00;98331.06;4917336;29;20028;-69
2021/11/30 13:50:21;;;;;;;0.60;0.60;;;;;;;1.53;100.00;98321.78;4917095;29;20111;-69
2021/11/30 13:52:47;;;;;;;0.70;0.70;;;;;;;1.69;100.00;98326.22;4917173;29;20031;-69
2021/11/30 13:55:14;;;;;;;0.60;0.60;;;;;;;1.65;100.00;98326.16;4917187;29;20042;-68
2021/11/30 13:57:40;;;;;;;0.60;0.60;;;;;;;1.56;100.00;98332.03;4917148;29;20040;-70
2021/11/30 14:00:16;;;;;;;1.00;1.00;;;;;;;1.62;100.00;98331.22;4913580;29;20075;-68
2021/11/30 14:02:46;;;;;;;0.60;0.60;;;;;;;1.62;100.00;98329.53;4904107;29;20350;-68
2021/11/30 14:05:13;;;;;;;0.80;0.80;;;;;;;1.57;100.00;98328.63;4917069;29;20036;-69
2021/11/30 14:07:39;;;;;;;0.55;0.55;;;;;;;1.66;100.00;98333.84;4916913;29;20060;-69
2021/11/30 14:10:19;;;;;;;1.88;0.82;;;;;;;1.83;100.00;98338.22;4916867;29;20028;-69
2021/11/30 14:12:45;;;;;;;;;;;;;;;1.80;100.00;98346.75;4917159;29;20413;-69
2021/11/30 14:15:10;;;;;;;0.50;0.50;;;;;;;1.85;100.00;98345.09;4916692;29;20014;-69
2021/11/30 14:17:37;;;;;;;0.55;0.55;;;;;;;1.76;100.00;98340.75;4916944;29;20359;-69
2021/11/30 14:20:14;;;;;;;0.55;0.55;;;;;;;1.79;99.68;98340.78;4916676;29;20035;-69
2021/11/30 14:22:40;;;;;;;0.50;0.50;;;;;;;1.84;100.00;98342.50;4916676;29;20024;-69
2021/11/30 14:25:13;;;;;;;0.50;0.50;;;;;;;1.99;100.00;98343.50;4915407;29;20438;-68
2021/11/30 14:27:40;;;;;;;0.60;0.60;;;;;;;1.95;100.00;98346.03;4916558;29;20039;-68
2021/11/30 14:30:11;;;;;;;0.73;0.73;;;;;;;1.95;100.00;98340.91;4912626;29;20032;-68
2021/11/30 14:32:37;;;;;;;0.52;0.52;;;;;;;1.96;100.00;98351.13;4902092;29;20071;-68
2021/11/30 14:35:05;;;;;;;0.88;0.68;;;;;;;1.95;100.00;98356.25;4915572;29;20055;-69
2021/11/30 14:37:33;;;;;;;0.70;0.70;;;;;;;1.92;99.79;98351.94;4915250;29;20049;-68
2021/11/30 14:40:22;;;;;;;6.13;5.60;;;;;;;2.00;100.00;98349.47;4916101;29;20028;-68
2021/11/30 14:43:04;;;;;;;0.90;0.90;;;;;;;2.01;100.00;98346.06;4916435;29;20039;-68
2021/11/30 14:45:53;;;;;;;0.50;0.50;;;;;;;2.06;99.64;98354.63;4911813;29;20529;-68
2021/11/30 14:48:31;;;;;;;0.50;0.50;;;;;;;2.03;98.38;98349.50;4899128;29;20028;-69
2021/11/30 14:50:59;;;;;;;0.60;0.60;;;;;;;1.97;100.00;98354.56;4897126;29;20032;-70
2021/11/30 14:53:30;;;;;;;0.60;0.60;;;;;;;1.97;99.41;98349.44;4897556;29;20116;-70
2021/11/30 14:56:05;;;;;;;0.60;0.60;;;;;;;2.07;100.00;98356.34;4897125;29;20032;-70
2021/11/30 14:58:35;;;;;;;0.63;0.63;;;;;;;1.99;99.74;98350.31;4897313;29;20031;-68
2021/11/30 15:01:25;;;;;;;4.95;2.60;;;;;;;2.07;99.44;98361.44;4904439;29;20107;-69
2021/11/30 15:03:59;;;;;;;0.55;0.55;;;;;;;2.11;100.00;98360.63;4878545;29;20057;-69
2021/11/30 15:06:47;;;;;;;0.60;0.60;;;;;;;2.03;99.50;98362.25;4902803;29;20119;-69
2021/11/30 15:09:21;;;;;;;0.43;0.43;;;;;;;2.09;98.41;98361.50;4900003;29;20386;-69
2021/11/30 15:11:55;;;;;;;0.70;0.70;;;;;;;2.09;98.44;98364.03;4896816;29;20494;-69
2021/11/30 15:14:26;;;;;;;2.53;2.25;;;;;;;2.03;99.59;98369.94;4896917;29;20146;-69
2021/11/30 15:16:54;;;;;;;1.13;1.08;;;;;;;2.05;99.02;98363.16;4896889;29;20033;-68
2021/11/30 15:19:29;;;;;;;0.50;0.50;;;;;;;2.06;100.00;98365.72;4895405;29;20029;-69
2021/11/30 15:21:55;;;;;;;0.43;0.43;;;;;;;2.03;100.00;98364.81;4896447;29;20029;-69
2021/11/30 15:24:23;;;;;;;0.88;0.57;;;;;;;2.09;100.00;98359.78;4904263;29;20039;-68
2021/11/30 15:26:51;;;;;;;0.50;0.50;;;;;;;1.96;100.00;98363.91;4909750;29;20497;-69
2021/11/30 15:29:25;;;;;;;0.50;0.50;;;;;;;2.07;100.00;98371.66;4912085;29;20040;-68
2021/11/30 15:31:53;;;;;;;8.95;5.90;;;;;;;2.08;100.00;98363.19;4902077;29;20024;-69
2021/11/30 15:34:19;;;;;;;1.17;1.17;;;;;;;2.06;100.00;98359.75;4896797;29;20032;-68
2021/11/30 15:36:45;;;;;;;0.50;0.50;;;;;;;2.10;100.00;98361.50;4904215;29;20025;-69
2021/11/30 15:39:14;;;;;;;0.50;0.50;;;;;;;2.13;100.00;98361.53;4896655;29;20025;-69
2021/11/30 15:41:40;;;;;;;0.52;0.52;;;;;;;2.20;100.00;98362.44;4896523;29;20032;-69
2021/11/30 15:44:06;;;;;;;0.52;0.52;;;;;;;2.21;100.00;98354.75;4896534;29;20080;-69
2021/11/30 15:46:32;;;;;;;0.43;0.43;;;;;;;2.11;100.00;98363.19;4897529;29;20024;-69
2021/11/30 15:48:57;;;;;;;1.45;1.00;;;;;;;2.23;100.00;98358.19;4899979;29;20040;-69
2021/11/30 15:51:30;;;;;;;0.57;0.57;;;;;;;2.20;100.00;98364.97;4900258;29;20052;-69
2021/11/30 15:54:01;;;;;;;0.70;0.70;;;;;;;2.30;100.00;98369.31;4900227;29;20435;-69
2021/11/30 15:59:11;;;;;;;0.60;0.60;;;;;;;2.11;100.00;98372.56;4900655;29;20133;-69
2021/11/30 16:01:37;;;;;;;0.50;0.50;;;;;;;2.22;100.00;98366.69;4910925;29;20049;-69
2021/11/30 16:04:02;;;;;;;0.80;0.80;;;;;;;2.34;100.00;98375.31;4919437;29;20039;-69
2021/11/30 16:06:28;;;;;;;0.60;0.60;;;;;;;2.23;100.00;98382.91;4911292;29;20028;-69
2021/11/30 16:08:53;;;;;;;0.60;0.60;;;;;;;2.21;100.00;98380.31;4913763;29;20119;-69
2021/11/30 16:11:19;;;;;;;0.70;0.70;;;;;;;2.23;100.00;98373.53;4918646;29;20032;-69
2021/11/30 16:13:49;;;;;;;0.50;0.50;;;;;;;2.23;100.00;98378.66;4918912;29;20020;-69
2021/11/30 16:16:19;;;;;;;0.70;0.70;;;;;;;2.39;100.00;98378.78;4918614;29;20494;-69
2021/11/30 16:18:45;;;;;;;0.90;0.90;;;;;;;2.38;100.00;98387.28;4918869;29;20035;-69
2021/11/30 16:21:11;;;;;;;2.88;0.98;;;;;;;2.47;100.00;98383.09;4918671;29;20389;-70